createdAt,value
2023-03-18T00:00:07.091Z,0.00
2023-03-18T00:01:07.126Z,0.00
2023-03-18T00:02:07.138Z,0.00
2023-03-18T00:03:07.150Z,0.00
2023-03-18T00:04:07.200Z,0.00
2023-03-18T00:05:07.143Z,0.00
2023-03-18T00:06:07.157Z,0.00
2023-03-18T00:07:07.198Z,0.00
2023-03-18T00:08:07.242Z,0.00
2023-03-18T00:09:07.205Z,0.00
2023-03-18T00:10:07.234Z,0.00
2023-03-18T00:11:07.240Z,0.00
2023-03-18T00:12:07.245Z,0.00
2023-03-18T00:13:07.290Z,0.00
2023-03-18T00:14:07.267Z,0.00
2023-03-18T00:15:07.297Z,0.00
2023-03-18T00:16:07.374Z,0.00
2023-03-18T00:17:07.305Z,0.00
2023-03-18T00:18:07.329Z,0.00
2023-03-18T00:19:07.323Z,0.00
2023-03-18T00:20:07.338Z,0.00
2023-03-18T00:21:07.348Z,0.00
2023-03-18T00:22:07.378Z,0.00
2023-03-18T00:23:07.389Z,0.00
2023-03-18T00:24:07.392Z,0.00
2023-03-18T00:25:07.406Z,0.00
2023-03-18T00:26:07.466Z,0.00
2023-03-18T00:27:07.469Z,0.00
2023-03-18T00:28:07.531Z,0.00
2023-03-18T00:29:07.524Z,0.00
2023-03-18T00:30:07.466Z,0.00
2023-03-18T00:31:07.495Z,0.00
2023-03-18T00:32:07.480Z,0.00
2023-03-18T00:33:07.672Z,0.00
2023-03-18T00:34:07.502Z,0.00
2023-03-18T00:35:07.537Z,0.00
2023-03-18T00:36:07.555Z,0.00
2023-03-18T00:37:07.549Z,0.00
2023-03-18T00:38:07.627Z,0.00
2023-03-18T00:39:07.608Z,0.00
2023-03-18T00:40:07.571Z,0.00
2023-03-18T00:41:07.588Z,0.00
2023-03-18T00:42:07.600Z,0.00
2023-03-18T00:43:07.617Z,0.00
2023-03-18T00:44:07.658Z,0.00
2023-03-18T00:45:07.638Z,0.00
2023-03-18T00:46:07.638Z,0.00
2023-03-18T00:47:07.654Z,0.00
2023-03-18T00:48:07.663Z,0.00
2023-03-18T00:49:07.709Z,0.00
2023-03-18T00:50:07.709Z,0.00
2023-03-18T00:51:07.693Z,0.00
2023-03-18T00:52:07.726Z,0.00
2023-03-18T00:53:07.737Z,0.00
2023-03-18T00:54:07.766Z,0.00
2023-03-18T00:55:07.745Z,0.00
2023-03-18T00:56:07.763Z,0.00
2023-03-18T00:57:07.772Z,0.00
2023-03-18T00:58:07.790Z,0.00
2023-03-18T00:59:07.825Z,0.00
2023-03-18T01:00:07.825Z,0.00
2023-03-18T01:01:07.852Z,0.00
2023-03-18T01:02:07.910Z,0.00
2023-03-18T01:03:29.374Z,987.79
2023-03-18T01:04:29.441Z,987.76
2023-03-18T01:05:29.395Z,987.80
2023-03-18T01:06:29.404Z,987.70
2023-03-18T01:07:29.410Z,987.74
2023-03-18T01:08:29.398Z,987.77
2023-03-18T01:09:29.388Z,987.74
2023-03-18T01:10:29.829Z,987.71
2023-03-18T01:11:29.413Z,987.78
2023-03-18T01:12:29.399Z,987.78
2023-03-18T01:13:29.401Z,987.86
2023-03-18T01:14:29.392Z,987.85
2023-03-18T01:15:29.415Z,987.82
2023-03-18T01:16:29.435Z,987.93
2023-03-18T01:17:29.451Z,987.77
2023-03-18T01:18:29.463Z,987.86
2023-03-18T01:19:29.408Z,987.87
2023-03-18T01:20:29.629Z,987.88
2023-03-18T01:21:29.415Z,987.82
2023-03-18T01:22:29.424Z,987.79
2023-03-18T01:23:29.392Z,987.80
2023-03-18T01:24:29.405Z,987.82
2023-03-18T01:25:29.434Z,987.77
2023-03-18T01:26:29.428Z,987.74
2023-03-18T01:27:29.428Z,987.75
2023-03-18T01:28:29.417Z,987.77
2023-03-18T01:29:29.412Z,987.71
2023-03-18T01:30:29.629Z,987.69
2023-03-18T01:31:29.479Z,987.70
2023-03-18T01:32:29.446Z,987.73
2023-03-18T01:33:29.418Z,987.70
2023-03-18T01:34:29.431Z,987.67
2023-03-18T01:35:29.451Z,987.69
2023-03-18T01:36:29.428Z,987.75
2023-03-18T01:37:29.452Z,987.70
2023-03-18T01:38:29.577Z,987.77
2023-03-18T01:39:29.573Z,987.71
2023-03-18T01:40:29.849Z,987.70
2023-03-18T01:41:29.588Z,987.66
2023-03-18T01:42:29.601Z,987.69
2023-03-18T01:43:29.615Z,987.68
2023-03-18T01:44:29.620Z,987.70
2023-03-18T01:45:29.701Z,987.63
2023-03-18T01:46:29.648Z,987.68
2023-03-18T01:47:29.674Z,987.65
2023-03-18T01:48:29.677Z,987.62
2023-03-18T01:49:29.691Z,987.71
2023-03-18T01:50:30.123Z,987.64
2023-03-18T01:51:29.723Z,987.65
2023-03-18T01:52:29.718Z,987.70
2023-03-18T01:53:29.734Z,987.71
2023-03-18T01:54:29.755Z,987.69
2023-03-18T01:55:29.771Z,987.61
2023-03-18T01:56:29.784Z,987.67
2023-03-18T01:57:29.791Z,987.66
2023-03-18T01:58:29.787Z,987.52
2023-03-18T01:59:29.848Z,987.47
2023-03-18T02:00:30.041Z,987.56
2023-03-18T02:01:29.885Z,987.53
2023-03-18T02:02:29.862Z,987.50
2023-03-18T02:03:29.844Z,987.51
2023-03-18T02:04:29.866Z,987.51
2023-03-18T02:05:29.873Z,987.41
2023-03-18T02:06:29.906Z,987.39
2023-03-18T02:07:29.952Z,987.40
2023-03-18T02:08:29.920Z,987.43
2023-03-18T02:09:29.946Z,987.44
2023-03-18T02:10:30.103Z,987.34
2023-03-18T02:11:29.951Z,987.42
2023-03-18T02:12:29.991Z,987.37
2023-03-18T02:13:29.983Z,987.38
2023-03-18T02:14:29.990Z,987.32
2023-03-18T02:15:29.990Z,987.33
2023-03-18T02:16:30.059Z,987.39
2023-03-18T02:17:30.039Z,987.37
2023-03-18T02:18:30.112Z,987.43
2023-03-18T02:19:30.056Z,987.38
2023-03-18T02:20:30.281Z,987.38
2023-03-18T02:21:30.094Z,987.34
2023-03-18T02:22:30.094Z,987.32
2023-03-18T02:23:30.136Z,987.33
2023-03-18T02:24:30.122Z,987.40
2023-03-18T02:25:30.134Z,987.35
2023-03-18T02:26:30.148Z,987.37
2023-03-18T02:27:30.151Z,987.33
2023-03-18T02:28:30.169Z,987.33
2023-03-18T02:29:30.206Z,987.41
2023-03-18T02:30:30.422Z,987.36
2023-03-18T02:31:30.203Z,987.27
2023-03-18T02:32:30.228Z,987.31
2023-03-18T02:33:30.248Z,987.27
2023-03-18T02:34:30.230Z,987.23
2023-03-18T02:35:30.319Z,987.23
2023-03-18T02:36:30.252Z,987.29
2023-03-18T02:37:30.259Z,987.26
2023-03-18T02:38:30.290Z,987.26
2023-03-18T02:39:30.290Z,987.24
2023-03-18T02:40:30.603Z,987.24
2023-03-18T02:41:30.317Z,987.22
2023-03-18T02:42:30.363Z,987.24
2023-03-18T02:43:30.345Z,987.23
2023-03-18T02:44:30.374Z,987.18
2023-03-18T02:45:30.378Z,987.15
2023-03-18T02:46:30.477Z,987.17
2023-03-18T02:47:30.394Z,987.20
2023-03-18T02:48:30.423Z,987.17
2023-03-18T02:49:30.420Z,987.31
2023-03-18T02:50:30.810Z,987.33
2023-03-18T02:51:30.430Z,987.31
2023-03-18T02:52:30.459Z,987.28
2023-03-18T02:53:30.467Z,987.31
2023-03-18T02:54:30.488Z,987.30
2023-03-18T02:55:30.506Z,987.32
2023-03-18T02:56:30.529Z,987.38
2023-03-18T02:57:30.514Z,987.35
2023-03-18T02:58:30.526Z,987.32
2023-03-18T02:59:30.534Z,987.39
2023-03-18T03:00:30.879Z,987.34
2023-03-18T03:01:30.634Z,987.27
2023-03-18T03:02:30.719Z,987.32
2023-03-18T03:03:30.667Z,987.42
2023-03-18T03:04:30.602Z,987.38
2023-03-18T03:05:30.602Z,987.44
2023-03-18T03:06:30.684Z,987.48
2023-03-18T03:07:30.634Z,987.46
2023-03-18T03:08:30.631Z,987.38
2023-03-18T03:09:30.659Z,987.45
2023-03-18T03:10:31.048Z,987.39
2023-03-18T03:11:30.689Z,987.41
2023-03-18T03:12:30.701Z,987.43
2023-03-18T03:13:30.710Z,987.43
2023-03-18T03:14:30.734Z,987.50
2023-03-18T03:15:30.825Z,987.47
2023-03-18T03:16:30.740Z,987.44
2023-03-18T03:17:30.745Z,987.40
2023-03-18T03:18:30.813Z,987.48
2023-03-18T03:19:30.775Z,987.44
2023-03-18T03:20:30.946Z,987.49
2023-03-18T03:21:30.812Z,987.52
2023-03-18T03:22:30.829Z,987.42
2023-03-18T03:23:30.816Z,987.55
2023-03-18T03:24:30.835Z,987.51
2023-03-18T03:25:30.856Z,987.61
2023-03-18T03:26:30.886Z,987.58
2023-03-18T03:27:30.876Z,987.51
2023-03-18T03:28:30.899Z,987.56
2023-03-18T03:29:30.897Z,987.57
2023-03-18T03:30:31.260Z,987.61
2023-03-18T03:31:30.968Z,987.60
2023-03-18T03:32:30.964Z,987.62
2023-03-18T03:33:30.940Z,987.56
2023-03-18T03:34:30.955Z,987.60
2023-03-18T03:35:31.139Z,987.59
2023-03-18T03:36:30.970Z,987.56
2023-03-18T03:37:31.000Z,987.63
2023-03-18T03:38:30.988Z,987.70
2023-03-18T03:39:31.063Z,987.61
2023-03-18T03:40:31.325Z,987.61
2023-03-18T03:41:31.224Z,987.63
2023-03-18T03:42:31.250Z,987.63
2023-03-18T03:43:31.233Z,987.60
2023-03-18T03:44:31.289Z,987.72
2023-03-18T03:45:31.229Z,987.74
2023-03-18T03:46:31.253Z,987.66
2023-03-18T03:47:31.284Z,987.66
2023-03-18T03:48:31.265Z,987.64
2023-03-18T03:49:31.230Z,987.72
2023-03-18T03:50:31.530Z,987.76
2023-03-18T03:51:31.258Z,987.76
2023-03-18T03:52:31.256Z,987.77
2023-03-18T03:53:31.263Z,987.74
2023-03-18T03:54:31.262Z,987.75
2023-03-18T03:55:31.258Z,987.82
2023-03-18T03:56:31.252Z,987.72
2023-03-18T03:57:31.305Z,987.79
2023-03-18T03:58:31.265Z,987.76
2023-03-18T03:59:31.270Z,987.83
2023-03-18T04:00:31.569Z,987.72
2023-03-18T04:01:31.268Z,987.76
2023-03-18T04:02:31.338Z,987.76
2023-03-18T04:03:31.315Z,987.83
2023-03-18T04:04:31.395Z,987.77
2023-03-18T04:05:31.334Z,987.91
2023-03-18T04:06:31.375Z,987.92
2023-03-18T04:07:31.376Z,987.86
2023-03-18T04:08:31.502Z,987.89
2023-03-18T04:09:31.467Z,987.85
2023-03-18T04:10:31.784Z,987.79
2023-03-18T04:11:31.502Z,987.83
2023-03-18T04:12:31.494Z,987.86
2023-03-18T04:13:31.526Z,987.87
2023-03-18T04:14:31.525Z,987.82
2023-03-18T04:15:31.483Z,987.77
2023-03-18T04:16:31.514Z,987.81
2023-03-18T04:17:31.517Z,987.75
2023-03-18T04:18:31.591Z,987.84
2023-03-18T04:19:31.591Z,987.72
2023-03-18T04:20:31.794Z,987.70
2023-03-18T04:21:31.577Z,987.75
2023-03-18T04:22:31.589Z,987.81
2023-03-18T04:23:31.577Z,987.83
2023-03-18T04:24:31.574Z,987.72
2023-03-18T04:25:31.619Z,987.79
2023-03-18T04:26:31.572Z,987.78
2023-03-18T04:27:31.603Z,987.81
2023-03-18T04:28:31.606Z,987.81
2023-03-18T04:29:31.631Z,987.80
2023-03-18T04:30:31.843Z,987.82
2023-03-18T04:31:31.652Z,987.89
2023-03-18T04:32:31.665Z,987.84
2023-03-18T04:33:31.674Z,987.92
2023-03-18T04:34:31.672Z,987.92
2023-03-18T04:35:31.706Z,987.95
2023-03-18T04:36:31.750Z,987.94
2023-03-18T04:37:31.716Z,987.96
2023-03-18T04:38:31.718Z,987.90
2023-03-18T04:39:31.720Z,987.93
2023-03-18T04:40:31.972Z,987.82
2023-03-18T04:41:31.752Z,987.86
2023-03-18T04:42:31.786Z,987.83
2023-03-18T04:43:31.780Z,987.75
2023-03-18T04:44:31.781Z,987.87
2023-03-18T04:45:31.806Z,987.85
2023-03-18T04:46:31.864Z,987.89
2023-03-18T04:47:31.818Z,987.87
2023-03-18T04:48:31.874Z,987.95
2023-03-18T04:49:31.860Z,987.98
2023-03-18T04:50:32.218Z,987.98
2023-03-18T04:51:31.879Z,987.94
2023-03-18T04:52:31.987Z,987.99
2023-03-18T04:53:31.976Z,988.00
2023-03-18T04:54:32.006Z,988.03
2023-03-18T04:55:32.292Z,987.94
2023-03-18T04:56:32.004Z,987.97
2023-03-18T04:57:32.029Z,987.98
2023-03-18T04:58:32.029Z,987.99
2023-03-18T04:59:32.005Z,988.08
2023-03-18T05:00:32.076Z,988.02
2023-03-18T05:01:32.076Z,988.03
2023-03-18T05:02:32.096Z,988.09
2023-03-18T05:03:32.145Z,987.99
2023-03-18T05:04:32.112Z,987.99
2023-03-18T05:05:32.303Z,988.08
2023-03-18T05:06:32.102Z,988.06
2023-03-18T05:07:32.141Z,988.02
2023-03-18T05:08:32.156Z,988.03
2023-03-18T05:09:32.167Z,988.00
2023-03-18T05:10:32.194Z,987.95
2023-03-18T05:11:32.179Z,988.04
2023-03-18T05:12:32.176Z,988.04
2023-03-18T05:13:32.244Z,988.04
2023-03-18T05:14:32.211Z,988.04
2023-03-18T05:15:32.549Z,988.01
2023-03-18T05:16:32.300Z,988.02
2023-03-18T05:17:32.201Z,988.01
2023-03-18T05:18:32.206Z,988.02
2023-03-18T05:19:32.202Z,987.95
2023-03-18T05:20:32.329Z,988.05
2023-03-18T05:21:32.323Z,988.01
2023-03-18T05:22:32.427Z,988.06
2023-03-18T05:23:32.484Z,988.02
2023-03-18T05:24:32.449Z,988.10
2023-03-18T05:25:32.872Z,988.03
2023-03-18T05:26:32.490Z,987.98
2023-03-18T05:27:32.519Z,988.09
2023-03-18T05:28:32.472Z,988.02
2023-03-18T05:29:32.490Z,988.06
2023-03-18T05:30:32.449Z,988.06
2023-03-18T05:31:32.525Z,988.04
2023-03-18T05:32:32.519Z,988.08
2023-03-18T05:33:32.467Z,988.09
2023-03-18T05:34:32.490Z,988.10
2023-03-18T05:35:32.839Z,988.03
2023-03-18T05:36:32.585Z,988.09
2023-03-18T05:37:32.597Z,988.17
2023-03-18T05:38:32.605Z,988.10
2023-03-18T05:39:32.614Z,988.10
2023-03-18T05:40:32.642Z,988.08
2023-03-18T05:41:32.669Z,988.05
2023-03-18T05:42:33.190Z,988.01
2023-03-18T05:43:32.703Z,988.06
2023-03-18T05:44:32.687Z,988.06
2023-03-18T05:45:33.031Z,988.02
2023-03-18T05:46:32.804Z,988.10
2023-03-18T05:47:32.732Z,988.08
2023-03-18T05:48:32.840Z,988.14
2023-03-18T05:49:32.838Z,988.17
2023-03-18T05:50:32.854Z,988.21
2023-03-18T05:51:32.878Z,988.22
2023-03-18T05:52:32.865Z,988.22
2023-03-18T05:53:32.833Z,988.24
2023-03-18T05:54:32.872Z,988.30
2023-03-18T05:55:33.188Z,988.32
2023-03-18T05:56:32.937Z,988.32
2023-03-18T05:57:32.951Z,988.22
2023-03-18T05:58:32.925Z,988.39
2023-03-18T05:59:32.978Z,988.38
2023-03-18T06:00:32.956Z,988.43
2023-03-18T06:01:33.021Z,988.43
2023-03-18T06:02:32.962Z,988.43
2023-03-18T06:03:32.973Z,988.38
2023-03-18T06:04:32.975Z,988.42
2023-03-18T06:05:33.129Z,988.45
2023-03-18T06:06:33.152Z,988.48
2023-03-18T06:07:33.173Z,988.36
2023-03-18T06:08:33.171Z,988.51
2023-03-18T06:09:33.172Z,988.48
2023-03-18T06:10:33.168Z,988.40
2023-03-18T06:11:33.157Z,988.49
2023-03-18T06:12:33.165Z,988.42
2023-03-18T06:13:33.167Z,988.44
2023-03-18T06:14:33.204Z,988.54
2023-03-18T06:15:33.597Z,988.49
2023-03-18T06:16:33.199Z,988.46
2023-03-18T06:17:33.158Z,988.50
2023-03-18T06:18:33.211Z,988.43
2023-03-18T06:19:33.206Z,988.44
2023-03-18T06:20:33.191Z,988.42
2023-03-18T06:21:33.277Z,988.42
2023-03-18T06:22:33.173Z,988.43
2023-03-18T06:23:33.192Z,988.43
2023-03-18T06:24:33.191Z,988.44
2023-03-18T06:25:33.400Z,988.49
2023-03-18T06:26:33.196Z,988.48
2023-03-18T06:27:33.218Z,988.49
2023-03-18T06:28:33.198Z,988.43
2023-03-18T06:29:33.215Z,988.45
2023-03-18T06:30:33.273Z,988.47
2023-03-18T06:31:33.219Z,988.46
2023-03-18T06:32:33.302Z,988.43
2023-03-18T06:33:33.211Z,988.42
2023-03-18T06:34:33.209Z,988.45
2023-03-18T06:35:33.712Z,988.44
2023-03-18T06:36:33.218Z,988.50
2023-03-18T06:37:33.207Z,988.48
2023-03-18T06:38:33.220Z,988.49
2023-03-18T06:39:33.223Z,988.53
2023-03-18T06:40:33.237Z,988.55
2023-03-18T06:41:33.379Z,988.52
2023-03-18T06:42:33.222Z,988.53
2023-03-18T06:43:33.251Z,988.52
2023-03-18T06:44:33.242Z,988.57
2023-03-18T06:45:33.528Z,988.59
2023-03-18T06:46:33.311Z,988.52
2023-03-18T06:47:33.263Z,988.60
2023-03-18T06:48:33.273Z,988.58
2023-03-18T06:49:33.301Z,988.54
2023-03-18T06:50:33.321Z,988.58
2023-03-18T06:51:33.340Z,988.66
2023-03-18T06:52:33.390Z,988.62
2023-03-18T06:53:33.341Z,988.66
2023-03-18T06:54:33.365Z,988.63
2023-03-18T06:55:33.804Z,988.63
2023-03-18T06:56:33.397Z,988.72
2023-03-18T06:57:33.411Z,988.64
2023-03-18T06:58:33.390Z,988.65
2023-03-18T06:59:33.422Z,988.63
2023-03-18T07:00:33.441Z,988.61
2023-03-18T07:01:33.480Z,988.64
2023-03-18T07:02:33.473Z,988.66
2023-03-18T07:03:33.462Z,988.67
2023-03-18T07:04:33.547Z,988.68
2023-03-18T07:05:33.941Z,988.68
2023-03-18T07:06:33.504Z,988.66
2023-03-18T07:07:33.501Z,988.66
2023-03-18T07:08:33.565Z,988.78
2023-03-18T07:09:33.551Z,988.75
2023-03-18T07:10:33.582Z,988.74
2023-03-18T07:11:33.557Z,988.74
2023-03-18T07:12:33.582Z,988.79
2023-03-18T07:13:33.596Z,988.79
2023-03-18T07:14:33.598Z,988.79
2023-03-18T07:15:33.832Z,988.82
2023-03-18T07:16:33.654Z,988.88
2023-03-18T07:17:33.646Z,988.87
2023-03-18T07:18:33.723Z,988.84
2023-03-18T07:19:33.667Z,988.79
2023-03-18T07:20:33.697Z,988.82
2023-03-18T07:21:33.685Z,988.91
2023-03-18T07:22:33.718Z,988.85
2023-03-18T07:23:33.745Z,988.84
2023-03-18T07:24:33.709Z,988.91
2023-03-18T07:25:34.046Z,988.88
2023-03-18T07:26:33.746Z,988.93
2023-03-18T07:27:33.747Z,988.90
2023-03-18T07:28:33.773Z,988.90
2023-03-18T07:29:33.806Z,988.87
2023-03-18T07:30:33.784Z,988.98
2023-03-18T07:31:33.863Z,988.95
2023-03-18T07:32:33.847Z,988.94
2023-03-18T07:33:33.821Z,989.03
2023-03-18T07:34:33.845Z,988.95
2023-03-18T07:35:34.159Z,988.95
2023-03-18T07:36:33.874Z,988.96
2023-03-18T07:37:33.869Z,988.99
2023-03-18T07:38:33.891Z,988.82
2023-03-18T07:39:33.915Z,988.94
2023-03-18T07:40:33.920Z,988.96
2023-03-18T07:41:36.042Z,988.95
2023-03-18T07:42:33.969Z,988.98
2023-03-18T07:43:33.905Z,988.91
2023-03-18T07:44:33.942Z,988.86
2023-03-18T07:45:34.165Z,988.85
2023-03-18T07:46:34.022Z,988.86
2023-03-18T07:47:33.929Z,988.89
2023-03-18T07:48:33.939Z,988.88
2023-03-18T07:49:33.928Z,988.84
2023-03-18T07:50:33.959Z,988.80
2023-03-18T07:51:33.951Z,988.79
2023-03-18T07:52:33.934Z,988.82
2023-03-18T07:53:33.946Z,988.79
2023-03-18T07:54:33.953Z,988.82
2023-03-18T07:55:34.526Z,988.64
2023-03-18T07:56:34.128Z,988.80
2023-03-18T07:57:33.918Z,988.72
2023-03-18T07:58:33.967Z,988.72
2023-03-18T07:59:33.952Z,988.74
2023-03-18T08:00:33.967Z,988.74
2023-03-18T08:01:33.985Z,988.81
2023-03-18T08:02:33.972Z,988.68
2023-03-18T08:03:34.064Z,988.70
2023-03-18T08:04:34.013Z,988.65
2023-03-18T08:05:34.355Z,988.68
2023-03-18T08:06:33.945Z,988.72
2023-03-18T08:07:33.970Z,988.70
2023-03-18T08:08:33.967Z,988.68
2023-03-18T08:09:33.959Z,988.71
2023-03-18T08:10:34.013Z,988.71
2023-03-18T08:11:33.989Z,988.77
2023-03-18T08:12:51.028Z,988.78
2023-03-18T08:13:33.959Z,988.76
2023-03-18T08:14:33.997Z,988.75
2023-03-18T08:15:34.609Z,988.75
2023-03-18T08:16:34.099Z,988.75
2023-03-18T08:17:33.966Z,988.74
2023-03-18T08:18:33.977Z,988.75
2023-03-18T08:19:33.974Z,988.72
2023-03-18T08:20:34.019Z,988.75
2023-03-18T08:21:34.015Z,988.78
2023-03-18T08:22:34.021Z,988.71
2023-03-18T08:23:33.957Z,988.77
2023-03-18T08:24:33.974Z,988.76
2023-03-18T08:25:34.244Z,988.74
2023-03-18T08:26:33.987Z,988.77
2023-03-18T08:27:34.000Z,988.67
2023-03-18T08:28:34.027Z,988.74
2023-03-18T08:29:34.007Z,988.73
2023-03-18T08:30:34.003Z,988.71
2023-03-18T08:31:34.041Z,988.75
2023-03-18T08:32:34.125Z,988.78
2023-03-18T08:33:34.020Z,988.76
2023-03-18T08:34:34.011Z,988.73
2023-03-18T08:35:34.309Z,988.74
2023-03-18T08:36:33.991Z,988.72
2023-03-18T08:37:34.040Z,988.81
2023-03-18T08:38:33.999Z,988.76
2023-03-18T08:39:33.997Z,988.84
2023-03-18T08:40:33.990Z,988.79
2023-03-18T08:41:33.991Z,988.80
2023-03-18T08:42:34.033Z,988.82
2023-03-18T08:43:34.025Z,988.81
2023-03-18T08:44:33.991Z,988.77
2023-03-18T08:45:34.497Z,988.82
2023-03-18T08:46:34.033Z,988.82
2023-03-18T08:47:34.034Z,988.84
2023-03-18T08:48:34.038Z,988.89
2023-03-18T08:49:34.044Z,988.81
2023-03-18T08:50:34.053Z,988.87
2023-03-18T08:51:34.050Z,988.88
2023-03-18T08:52:34.047Z,988.83
2023-03-18T08:53:34.062Z,988.90
2023-03-18T08:54:34.051Z,988.88
2023-03-18T08:55:34.362Z,988.89
2023-03-18T08:56:34.044Z,988.95
2023-03-18T08:57:34.110Z,988.87
2023-03-18T08:58:34.030Z,988.82
2023-03-18T08:59:34.048Z,988.86
2023-03-18T09:00:34.041Z,988.87
2023-03-18T09:01:34.108Z,988.89
2023-03-18T09:02:34.077Z,988.88
2023-03-18T09:03:34.046Z,988.89
2023-03-18T09:04:34.040Z,988.96
2023-03-18T09:05:34.518Z,988.92
2023-03-18T09:06:34.053Z,988.84
2023-03-18T09:07:34.074Z,988.86
2023-03-18T09:08:34.070Z,988.87
2023-03-18T09:09:43.440Z,988.88
2023-03-18T09:10:34.074Z,988.82
2023-03-18T09:11:34.033Z,988.79
2023-03-18T09:12:34.072Z,988.88
2023-03-18T09:13:34.099Z,988.87
2023-03-18T09:14:34.060Z,988.82
2023-03-18T09:15:34.497Z,988.77
2023-03-18T09:16:34.070Z,988.81
2023-03-18T09:17:51.028Z,988.74
2023-03-18T09:18:34.080Z,988.72
2023-03-18T09:19:34.080Z,988.71
2023-03-18T09:20:34.085Z,988.71
2023-03-18T09:21:34.067Z,988.75
2023-03-18T09:22:34.080Z,988.74
2023-03-18T09:23:34.117Z,988.77
2023-03-18T09:24:34.058Z,988.67
2023-03-18T09:25:34.581Z,988.70
2023-03-18T09:26:37.133Z,988.71
2023-03-18T09:27:34.076Z,988.68
2023-03-18T09:28:34.148Z,988.68
2023-03-18T09:29:34.093Z,988.61
2023-03-18T09:30:34.173Z,988.68
2023-03-18T09:31:34.094Z,988.60
2023-03-18T09:32:34.091Z,988.60
2023-03-18T09:33:34.112Z,988.63
2023-03-18T09:34:34.097Z,988.57
2023-03-18T09:35:34.450Z,988.62
2023-03-18T09:36:34.085Z,988.69
2023-03-18T09:37:34.059Z,988.58
2023-03-18T09:38:34.062Z,988.63
2023-03-18T09:39:34.096Z,988.63
2023-03-18T09:40:35.821Z,988.63
2023-03-18T09:41:34.107Z,988.61
2023-03-18T09:42:34.104Z,988.63
2023-03-18T09:43:34.096Z,988.61
2023-03-18T09:44:34.086Z,988.58
2023-03-18T09:45:34.523Z,988.72
2023-03-18T09:46:34.232Z,988.68
2023-03-18T09:47:34.124Z,988.68
2023-03-18T09:48:34.130Z,988.66
2023-03-18T09:49:34.108Z,988.62
2023-03-18T09:50:34.104Z,988.68
2023-03-18T09:51:34.118Z,988.72
2023-03-18T09:52:34.110Z,988.64
2023-03-18T09:53:34.117Z,988.70
2023-03-18T09:54:34.135Z,988.64
2023-03-18T09:55:34.377Z,988.67
2023-03-18T09:56:34.120Z,988.68
2023-03-18T09:57:34.102Z,988.65
2023-03-18T09:58:34.121Z,988.68
2023-03-18T09:59:34.139Z,988.63
2023-03-18T10:00:34.289Z,988.62
2023-03-18T10:01:34.150Z,988.58
2023-03-18T10:02:34.129Z,988.63
2023-03-18T10:03:34.198Z,988.61
2023-03-18T10:04:34.132Z,988.57
2023-03-18T10:05:34.604Z,988.60
2023-03-18T10:06:34.158Z,988.55
2023-03-18T10:07:34.131Z,988.52
2023-03-18T10:08:36.243Z,988.59
2023-03-18T10:09:34.112Z,988.60
2023-03-18T10:10:34.147Z,988.67
2023-03-18T10:11:34.160Z,988.52
2023-03-18T10:12:34.122Z,988.55
2023-03-18T10:13:34.131Z,988.56
2023-03-18T10:14:36.151Z,988.52
2023-03-18T10:15:34.524Z,988.50
2023-03-18T10:16:34.162Z,988.51
2023-03-18T10:17:34.138Z,988.51
2023-03-18T10:18:34.129Z,988.57
2023-03-18T10:19:34.196Z,988.55
2023-03-18T10:20:34.150Z,988.59
2023-03-18T10:21:34.137Z,988.60
2023-03-18T10:22:34.147Z,988.55
2023-03-18T10:23:34.138Z,988.57
2023-03-18T10:24:34.160Z,988.51
2023-03-18T10:25:34.592Z,988.62
2023-03-18T10:26:34.134Z,988.53
2023-03-18T10:27:34.164Z,988.54
2023-03-18T10:28:34.160Z,988.54
2023-03-18T10:29:34.158Z,988.49
2023-03-18T10:30:34.150Z,988.48
2023-03-18T10:31:34.277Z,988.49
2023-03-18T10:32:48.712Z,988.40
2023-03-18T10:33:34.198Z,988.46
2023-03-18T10:34:34.157Z,988.45
2023-03-18T10:35:34.499Z,988.47
2023-03-18T10:36:34.152Z,988.48
2023-03-18T10:37:34.160Z,988.52
2023-03-18T10:38:34.198Z,988.50
2023-03-18T10:39:34.162Z,988.49
2023-03-18T10:40:34.150Z,988.48
2023-03-18T10:41:34.172Z,988.55
2023-03-18T10:42:34.186Z,988.51
2023-03-18T10:43:34.190Z,988.53
2023-03-18T10:44:34.197Z,988.48
2023-03-18T10:45:34.394Z,988.56
2023-03-18T10:46:34.332Z,988.52
2023-03-18T10:47:34.258Z,988.43
2023-03-18T10:48:34.183Z,988.48
2023-03-18T10:49:34.480Z,988.42
2023-03-18T10:50:34.789Z,988.48
2023-03-18T10:51:34.197Z,988.45
2023-03-18T10:52:34.203Z,988.50
2023-03-18T10:53:34.182Z,988.45
2023-03-18T10:54:34.219Z,988.45
2023-03-18T10:55:34.209Z,988.43
2023-03-18T10:56:34.185Z,988.48
2023-03-18T10:57:34.197Z,988.48
2023-03-18T10:58:34.200Z,988.43
2023-03-18T10:59:34.218Z,988.39
2023-03-18T11:00:34.655Z,988.42
2023-03-18T11:01:34.193Z,988.49
2023-03-18T11:02:34.234Z,988.44
2023-03-18T11:03:34.210Z,988.40
2023-03-18T11:04:34.209Z,988.41
2023-03-18T11:05:34.630Z,988.41
2023-03-18T11:06:34.210Z,988.41
2023-03-18T11:07:34.208Z,988.36
2023-03-18T11:08:34.244Z,988.45
2023-03-18T11:09:34.222Z,988.41
2023-03-18T11:10:34.696Z,988.44
2023-03-18T11:11:34.238Z,988.38
2023-03-18T11:12:34.219Z,988.39
2023-03-18T11:13:34.189Z,988.35
2023-03-18T11:14:34.204Z,988.40
2023-03-18T11:15:34.200Z,745.24
2023-03-18T11:16:34.311Z,988.41
2023-03-18T11:17:34.229Z,988.40
2023-03-18T11:18:34.256Z,988.42
2023-03-18T11:19:34.233Z,988.53
2023-03-18T11:20:34.453Z,988.52
2023-03-18T11:21:34.235Z,988.52
2023-03-18T11:22:34.236Z,988.52
2023-03-18T11:23:34.202Z,988.53
2023-03-18T11:24:34.257Z,988.52
2023-03-18T11:25:34.242Z,988.57
2023-03-18T11:26:34.264Z,988.53
2023-03-18T11:27:34.224Z,988.51
2023-03-18T11:28:34.235Z,988.60
2023-03-18T11:29:34.268Z,988.44
2023-03-18T11:30:35.071Z,988.51
2023-03-18T11:31:34.285Z,988.55
2023-03-18T11:32:34.422Z,988.54
2023-03-18T11:33:34.244Z,988.61
2023-03-18T11:34:34.260Z,988.58
2023-03-18T11:35:34.257Z,988.60
2023-03-18T11:36:34.229Z,988.63
2023-03-18T11:37:34.262Z,988.51
2023-03-18T11:38:34.252Z,988.52
2023-03-18T11:39:34.252Z,988.52
2023-03-18T11:40:34.618Z,988.58
2023-03-18T11:41:34.267Z,988.50
2023-03-18T11:42:34.269Z,988.55
2023-03-18T11:43:34.291Z,988.56
2023-03-18T11:44:34.252Z,988.53
2023-03-18T11:45:34.242Z,988.55
2023-03-18T11:46:34.292Z,988.56
2023-03-18T11:47:34.290Z,988.53
2023-03-18T11:48:34.264Z,988.45
2023-03-18T11:49:34.257Z,988.40
2023-03-18T11:50:34.625Z,988.52
2023-03-18T11:51:34.227Z,988.66
2023-03-18T11:52:34.241Z,988.54
2023-03-18T11:53:34.272Z,988.54
2023-03-18T11:54:34.268Z,988.52
2023-03-18T11:55:34.545Z,988.57
2023-03-18T11:56:34.234Z,988.64
2023-03-18T11:57:34.243Z,988.51
2023-03-18T11:58:34.283Z,988.56
2023-03-18T11:59:34.274Z,988.51
2023-03-18T12:00:34.262Z,988.61
2023-03-18T12:01:34.278Z,988.50
2023-03-18T12:02:34.258Z,988.48
2023-03-18T12:03:34.316Z,988.50
2023-03-18T12:04:34.294Z,988.45
2023-03-18T12:05:34.592Z,988.51
2023-03-18T12:06:34.298Z,988.56
2023-03-18T12:07:36.390Z,988.54
2023-03-18T12:08:34.265Z,988.51
2023-03-18T12:09:34.263Z,988.54
2023-03-18T12:10:34.595Z,988.61
2023-03-18T12:11:34.295Z,988.57
2023-03-18T12:12:34.463Z,988.55
2023-03-18T12:13:36.336Z,988.63
2023-03-18T12:14:34.296Z,988.55
2023-03-18T12:15:34.616Z,988.56
2023-03-18T12:16:34.337Z,988.55
2023-03-18T12:17:34.313Z,988.53
2023-03-18T12:18:34.356Z,988.55
2023-03-18T12:19:34.289Z,988.51
2023-03-18T12:20:34.909Z,988.54
2023-03-18T12:21:34.291Z,988.51
2023-03-18T12:22:34.324Z,988.48
2023-03-18T12:23:34.322Z,988.43
2023-03-18T12:24:34.359Z,988.53
2023-03-18T12:25:34.311Z,988.45
2023-03-18T12:26:34.293Z,988.52
2023-03-18T12:27:34.328Z,988.40
2023-03-18T12:28:34.286Z,988.50
2023-03-18T12:29:34.289Z,988.52
2023-03-18T12:30:34.559Z,988.47
2023-03-18T12:31:34.290Z,988.43
2023-03-18T12:32:34.375Z,988.46